Time;durP1;ratioP1;P1;durP2;ratioP2;P2;SDS_P1;SDS_P2;PMS_P1;PMS_P2;Temp;Humidity;BMP_temperature;BMP_pressure;BME280_temperature;BME280_humidity;BME280_pressure;Samples;Min_cycle;Max_cycle;Signal;HPM_P1;HPM_P2
2022/01/13 00:02:07;;;;;;;57.58;25.27;;;3.60;99.90;;;;;;5048388;28;20219;-45
2022/01/13 00:04:32;;;;;;;58.47;26.65;;;3.70;99.90;;;;;;5048347;28;20035;-47
2022/01/13 00:06:58;;;;;;;61.92;25.77;;;3.60;99.90;;;;;;5048756;28;20458;-45
2022/01/13 00:09:23;;;;;;;60.58;25.55;;;3.70;99.90;;;;;;5051098;28;20053;-45
2022/01/13 00:11:50;;;;;;;59.35;26.20;;;3.60;99.90;;;;;;5052703;28;20033;-44
2022/01/13 00:22:01;;;;;;;57.42;23.90;;;3.60;99.90;;;;;;5052762;28;20576;-45
2022/01/13 00:24:27;;;;;;;53.92;24.95;;;3.60;99.90;;;;;;5052233;28;20025;-45
2022/01/13 00:26:54;;;;;;;63.00;25.58;;;3.60;99.90;;;;;;5050881;28;20021;-45
2022/01/13 00:29:26;;;;;;;64.50;25.45;;;3.50;99.90;;;;;;5051541;28;20028;-46
2022/01/13 00:31:52;;;;;;;51.05;23.67;;;3.50;99.90;;;;;;5052223;28;20025;-45
2022/01/13 00:34:18;;;;;;;48.03;24.38;;;3.50;99.90;;;;;;5052133;28;20073;-45
2022/01/13 00:36:43;;;;;;;57.70;25.77;;;3.50;99.90;;;;;;5051965;28;20331;-44
2022/01/13 00:39:11;;;;;;;58.17;24.88;;;3.40;99.90;;;;;;5050069;28;20531;-47
2022/01/13 00:41:37;;;;;;;65.53;25.85;;;3.50;99.90;;;;;;5051843;28;20029;-45
2022/01/13 00:44:05;;;;;;;53.22;23.95;;;3.40;99.90;;;;;;5050602;28;20037;-47
2022/01/13 00:46:41;;;;;;;60.35;25.88;;;3.50;99.90;;;;;;5052078;28;20025;-45
2022/01/13 00:49:07;;;;;;;57.58;25.73;;;3.40;99.90;;;;;;5051070;28;20032;-44
2022/01/13 00:51:32;;;;;;;56.15;24.52;;;3.40;99.90;;;;;;5051773;28;20025;-45
2022/01/13 00:54:03;;;;;;;59.05;26.20;;;3.40;99.90;;;;;;5052064;28;20029;-44
2022/01/13 00:56:30;;;;;;;58.17;26.33;;;3.40;99.90;;;;;;5050315;28;20021;-47
2022/01/13 00:58:56;;;;;;;57.78;26.02;;;3.40;99.90;;;;;;5051220;28;20033;-44
2022/01/13 01:01:22;;;;;;;53.58;24.55;;;3.50;99.90;;;;;;5051488;28;20483;-46
2022/01/13 01:03:47;;;;;;;52.78;25.00;;;3.40;99.90;;;;;;5051624;28;20032;-45
2022/01/13 01:06:13;;;;;;;55.47;25.60;;;3.50;99.90;;;;;;5051734;28;20191;-45
2022/01/13 01:08:38;;;;;;;60.55;27.52;;;3.50;99.90;;;;;;5051038;28;20463;-45
2022/01/13 01:11:05;;;;;;;59.35;25.13;;;3.50;99.90;;;;;;5051743;28;20075;-44
2022/01/13 01:13:33;;;;;;;57.10;25.02;;;3.60;99.90;;;;;;5051608;28;20389;-45
2022/01/13 01:16:04;;;;;;;54.35;25.35;;;3.50;99.90;;;;;;5051645;28;20032;-45
2022/01/13 01:24:10;;;;;;;61.60;26.85;;;3.50;99.90;;;;;;5051643;28;20183;-44
2022/01/13 01:31:46;;;;;;;57.28;25.50;;;3.60;99.90;;;;;;5051031;28;20458;-45
2022/01/13 01:36:44;;;;;;;57.38;26.77;;;3.70;99.90;;;;;;5051062;28;20290;-45
2022/01/13 01:39:11;;;;;;;58.85;26.55;;;3.70;99.90;;;;;;5050454;28;20455;-46
2022/01/13 01:41:43;;;;;;;57.72;24.98;;;3.70;99.90;;;;;;5050785;28;20032;-45
2022/01/13 01:44:11;;;;;;;63.47;28.70;;;3.70;99.90;;;;;;5050738;28;20052;-45
2022/01/13 01:46:39;;;;;;;53.28;27.70;;;3.70;99.90;;;;;;5050762;28;20024;-45
2022/01/13 01:49:15;;;;;;;57.47;27.63;;;3.70;99.90;;;;;;5049878;28;20029;-45
2022/01/13 01:51:42;;;;;;;64.13;27.65;;;3.70;99.90;;;;;;5050634;28;20040;-45
2022/01/13 01:54:07;;;;;;;55.30;27.17;;;3.70;99.90;;;;;;5050795;28;20050;-45
2022/01/13 01:56:33;;;;;;;59.88;28.33;;;3.70;99.90;;;;;;5050500;28;20029;-45
2022/01/13 01:59:02;;;;;;;59.17;29.00;;;3.70;99.90;;;;;;5049872;28;20543;-45
2022/01/13 02:01:28;;;;;;;63.28;28.75;;;3.70;99.90;;;;;;5050345;28;20029;-45
2022/01/13 02:03:54;;;;;;;66.28;29.25;;;3.70;99.90;;;;;;5050519;28;20021;-44
2022/01/13 02:06:19;;;;;;;55.38;27.10;;;3.60;99.90;;;;;;5049108;28;20027;-45
2022/01/13 02:08:45;;;;;;;59.22;29.27;;;3.70;99.90;;;;;;5049688;28;20104;-47
2022/01/13 02:11:11;;;;;;;70.80;30.35;;;3.60;99.90;;;;;;5050233;28;20025;-47
2022/01/13 02:13:44;;;;;;;60.10;29.70;;;3.60;99.90;;;;;;5050184;28;20025;-46
2022/01/13 02:16:25;;;;;;;61.70;28.15;;;3.60;99.90;;;;;;5050315;28;20029;-45
2022/01/13 02:18:51;;;;;;;62.90;27.10;;;3.50;99.90;;;;;;5049758;28;20047;-45
2022/01/13 02:21:19;;;;;;;61.50;29.80;;;3.60;99.90;;;;;;5049682;28;20021;-45
2022/01/13 02:23:44;;;;;;;63.33;29.25;;;3.60;99.90;;;;;;5057889;28;20048;-44
2022/01/13 02:26:10;;;;;;;62.25;28.60;;;3.50;99.90;;;;;;5056494;28;20488;-46
2022/01/13 02:28:38;;;;;;;63.67;29.27;;;3.50;99.90;;;;;;5059817;28;20013;-46
2022/01/13 02:31:04;;;;;;;64.63;30.40;;;3.50;99.90;;;;;;5058854;28;20021;-45
2022/01/13 02:33:30;;;;;;;62.60;29.52;;;3.50;99.90;;;;;;5058268;28;20563;-45
2022/01/13 02:35:55;;;;;;;67.15;30.08;;;3.50;99.90;;;;;;5060644;28;20064;-47
2022/01/13 02:38:21;;;;;;;65.53;30.08;;;3.50;99.90;;;;;;5057500;28;20024;-46
2022/01/13 02:40:54;;;;;;;68.68;30.92;;;3.50;99.90;;;;;;5060386;28;20025;-45
2022/01/13 02:43:20;;;;;;;68.10;30.15;;;3.50;99.90;;;;;;5068981;28;20119;-44
2022/01/13 02:46:03;;;;;;;62.75;29.25;;;3.40;99.90;;;;;;5069710;28;20048;-45
2022/01/13 02:48:30;;;;;;;77.50;31.08;;;3.50;99.90;;;;;;5068914;28;20040;-45
2022/01/13 02:50:56;;;;;;;75.63;34.33;;;3.50;99.90;;;;;;5068054;28;20437;-45
2022/01/13 02:53:23;;;;;;;69.18;30.90;;;3.40;99.90;;;;;;5068135;28;20504;-44
2022/01/13 02:55:49;;;;;;;82.63;34.15;;;3.40;99.90;;;;;;5069546;28;20462;-45
2022/01/13 02:58:15;;;;;;;66.07;31.08;;;3.40;99.90;;;;;;5069117;28;20289;-45
2022/01/13 03:00:42;;;;;;;69.82;30.20;;;3.40;99.90;;;;;;5069589;28;20035;-45
2022/01/13 03:03:07;;;;;;;66.90;30.63;;;3.50;99.90;;;;;;5069463;28;20103;-46
2022/01/13 03:05:37;;;;;;;61.75;29.90;;;3.40;99.90;;;;;;5069200;28;20123;-45
2022/01/13 03:08:03;;;;;;;69.67;31.97;;;3.40;99.90;;;;;;5068666;28;20221;-44
2022/01/13 03:10:29;;;;;;;77.93;32.55;;;3.40;99.90;;;;;;5069319;28;20104;-44
2022/01/13 03:12:56;;;;;;;75.50;32.97;;;3.40;99.90;;;;;;5069246;28;20111;-45
2022/01/13 03:15:21;;;;;;;77.22;34.03;;;3.40;99.90;;;;;;5067725;28;20070;-45
2022/01/13 03:17:47;;;;;;;72.75;33.33;;;3.40;99.90;;;;;;5068717;28;20028;-47
2022/01/13 03:20:13;;;;;;;74.15;34.95;;;3.40;99.90;;;;;;5068789;28;20483;-44
2022/01/13 03:22:38;;;;;;;78.47;35.03;;;3.40;99.90;;;;;;5068741;28;20034;-44
2022/01/13 03:25:05;;;;;;;69.78;32.47;;;3.40;99.90;;;;;;5069031;28;20047;-44
2022/01/13 03:27:34;;;;;;;75.32;32.30;;;3.40;99.90;;;;;;5068519;28;20035;-45
2022/01/13 03:30:05;;;;;;;86.45;34.80;;;3.40;99.90;;;;;;5068798;28;20020;-46
2022/01/13 03:32:30;;;;;;;85.68;36.35;;;3.40;99.90;;;;;;5068742;28;20410;-47
2022/01/13 03:34:56;;;;;;;86.75;35.35;;;3.40;99.90;;;;;;5068647;28;20036;-45
2022/01/13 03:37:22;;;;;;;83.97;35.47;;;3.30;99.90;;;;;;5068348;28;20071;-45
2022/01/13 03:39:49;;;;;;;80.93;36.38;;;3.30;99.90;;;;;;5067411;28;20052;-45
2022/01/13 03:42:14;;;;;;;87.07;37.67;;;3.30;99.90;;;;;;5068610;28;20475;-45
2022/01/13 03:44:40;;;;;;;93.80;38.20;;;3.30;99.90;;;;;;5068490;28;20020;-45
2022/01/13 03:47:05;;;;;;;87.18;39.08;;;3.30;99.90;;;;;;5068632;28;20020;-44
2022/01/13 03:49:32;;;;;;;93.13;38.83;;;3.30;99.90;;;;;;5067868;28;20032;-45
2022/01/13 03:52:02;;;;;;;95.55;37.67;;;3.30;99.90;;;;;;5067315;28;20032;-44
2022/01/13 03:54:34;;;;;;;91.97;36.97;;;3.40;99.90;;;;;;5068689;28;20059;-45
2022/01/13 03:57:19;;;;;;;91.22;38.97;;;3.30;99.90;;;;;;5068541;28;20017;-46
2022/01/13 04:00:13;;;;;;;101.65;40.88;;;3.40;99.90;;;;;;5068326;28;20545;-45
2022/01/13 04:02:39;;;;;;;89.90;37.95;;;3.30;99.90;;;;;;5067094;28;20029;-48
2022/01/13 04:05:04;;;;;;;98.70;39.78;;;3.40;99.90;;;;;;5068461;28;20531;-45
2022/01/13 04:07:30;;;;;;;106.75;42.72;;;3.40;99.90;;;;;;5067898;28;20017;-47
2022/01/13 04:09:56;;;;;;;105.53;41.58;;;3.30;99.90;;;;;;5068433;28;20074;-45
2022/01/13 04:12:24;;;;;;;103.40;41.47;;;3.30;99.90;;;;;;5068404;28;20043;-45
2022/01/13 04:14:54;;;;;;;92.35;41.40;;;3.30;99.90;;;;;;5067045;28;20478;-45
2022/01/13 04:17:22;;;;;;;114.22;41.80;;;3.30;99.90;;;;;;5066643;28;20028;-45
2022/01/13 04:19:49;;;;;;;104.00;43.05;;;3.30;99.90;;;;;;5068253;28;20033;-44
2022/01/13 04:22:16;;;;;;;114.68;42.22;;;3.30;99.90;;;;;;5068361;28;20070;-46
2022/01/13 04:24:48;;;;;;;108.03;41.70;;;3.20;99.90;;;;;;5068182;28;20520;-45
2022/01/13 04:27:22;;;;;;;111.18;42.25;;;3.20;99.90;;;;;;5067995;28;20035;-45
2022/01/13 04:29:49;;;;;;;113.45;42.08;;;3.20;99.90;;;;;;5068392;28;20340;-46
2022/01/13 04:32:15;;;;;;;114.03;42.97;;;3.20;99.90;;;;;;5068342;28;20028;-44
2022/01/13 04:34:41;;;;;;;122.72;45.97;;;3.20;99.90;;;;;;5068345;28;20031;-45
2022/01/13 04:37:06;;;;;;;110.28;45.20;;;3.20;99.90;;;;;;5066958;28;20021;-45
2022/01/13 04:39:32;;;;;;;111.80;44.05;;;3.20;99.90;;;;;;5067515;28;20107;-45
2022/01/13 04:41:58;;;;;;;127.00;46.63;;;3.20;99.90;;;;;;5066846;28;20537;-44
2022/01/13 04:44:25;;;;;;;121.50;44.05;;;3.20;99.90;;;;;;5068401;28;20029;-44
2022/01/13 04:46:53;;;;;;;121.65;46.13;;;3.20;99.90;;;;;;5068153;28;20443;-46
2022/01/13 04:49:21;;;;;;;119.72;46.33;;;3.30;99.90;;;;;;5067209;28;20090;-44
2022/01/13 04:51:49;;;;;;;124.97;47.95;;;3.30;99.90;;;;;;5068459;28;20390;-45
2022/01/13 04:54:15;;;;;;;131.23;45.15;;;3.30;99.90;;;;;;5068123;28;20029;-45
2022/01/13 04:56:44;;;;;;;116.65;44.67;;;3.30;99.90;;;;;;5071241;28;20066;-45
2022/01/13 04:59:10;;;;;;;123.93;46.00;;;3.30;99.90;;;;;;5071087;28;20486;-44
2022/01/13 05:01:37;;;;;;;132.32;46.28;;;3.30;99.90;;;;;;5071673;28;20098;-45
2022/01/13 05:04:03;;;;;;;114.35;42.90;;;3.30;99.90;;;;;;5071737;28;20024;-44
2022/01/13 05:06:28;;;;;;;114.70;43.58;;;3.30;99.90;;;;;;5070358;28;20351;-44
2022/01/13 05:08:55;;;;;;;125.43;46.13;;;3.30;99.90;;;;;;5070910;28;20063;-47
2022/01/13 05:11:21;;;;;;;116.65;43.08;;;3.30;99.90;;;;;;5071560;28;20021;-45
2022/01/13 05:13:47;;;;;;;132.32;46.28;;;3.30;99.90;;;;;;5070078;28;20040;-45
2022/01/13 05:16:28;;;;;;;124.18;44.92;;;3.40;99.90;;;;;;5072080;28;20422;-45
2022/01/13 05:19:07;;;;;;;;;;;3.40;99.90;;;;;;5080377;28;20081;-45
2022/01/13 05:24:11;;;;;;;117.28;43.50;;;3.30;99.90;;;;;;5081189;28;20078;-45
2022/01/13 05:26:36;;;;;;;122.32;42.72;;;3.40;99.90;;;;;;5079908;28;20320;-44
2022/01/13 05:29:03;;;;;;;118.95;41.38;;;3.40;99.90;;;;;;5076226;28;20016;-44
2022/01/13 05:31:28;;;;;;;111.57;40.90;;;3.40;99.90;;;;;;5089777;28;20032;-44
2022/01/13 05:33:54;;;;;;;118.88;41.65;;;3.40;99.90;;;;;;5091221;28;20039;-45
2022/01/13 05:36:19;;;;;;;115.82;41.35;;;3.40;99.90;;;;;;5091138;28;20361;-45
2022/01/13 05:38:45;;;;;;;111.40;40.92;;;3.40;99.90;;;;;;5089205;28;20055;-44
2022/01/13 05:41:10;;;;;;;112.05;38.63;;;3.40;99.90;;;;;;5091006;28;20153;-45
2022/01/13 05:43:36;;;;;;;103.88;38.83;;;3.40;99.90;;;;;;5091326;28;20107;-45
2022/01/13 05:46:03;;;;;;;112.78;39.67;;;3.40;99.90;;;;;;5090831;28;20028;-45
2022/01/13 05:48:28;;;;;;;107.55;41.33;;;3.40;99.90;;;;;;5090202;28;20040;-45
2022/01/13 05:50:55;;;;;;;105.18;36.92;;;3.40;99.90;;;;;;5089667;28;20116;-48
2022/01/13 05:53:20;;;;;;;114.57;39.17;;;3.40;99.90;;;;;;5091140;28;20099;-45
2022/01/13 05:55:46;;;;;;;110.60;39.10;;;3.40;99.90;;;;;;5090877;28;20071;-45
2022/01/13 05:58:12;;;;;;;106.50;35.75;;;3.40;99.90;;;;;;5090248;28;20051;-45
2022/01/13 06:00:38;;;;;;;108.35;38.47;;;3.40;99.90;;;;;;5089442;28;20073;-45
2022/01/13 06:03:04;;;;;;;100.93;37.63;;;3.40;99.90;;;;;;5090781;28;20490;-45
2022/01/13 06:05:30;;;;;;;108.43;37.20;;;3.40;99.90;;;;;;5090565;28;20020;-45
2022/01/13 06:07:55;;;;;;;99.95;38.17;;;3.50;99.90;;;;;;5090217;28;20371;-45
2022/01/13 06:10:22;;;;;;;98.35;35.63;;;3.50;99.90;;;;;;5090590;28;20073;-44
2022/01/13 06:12:48;;;;;;;103.90;38.00;;;3.50;99.90;;;;;;5090695;28;20024;-43
2022/01/13 06:15:18;;;;;;;98.00;35.67;;;3.40;99.90;;;;;;5090350;28;20026;-45
2022/01/13 06:17:43;;;;;;;106.85;36.08;;;3.50;99.90;;;;;;5086207;28;20033;-44
2022/01/13 06:20:11;;;;;;;104.53;36.15;;;3.40;99.90;;;;;;5070136;28;20035;-45
2022/01/13 06:22:38;;;;;;;93.65;33.35;;;3.50;99.90;;;;;;5068942;28;20533;-44
2022/01/13 06:25:05;;;;;;;100.93;34.08;;;3.50;99.90;;;;;;5070062;28;20494;-44
2022/01/13 06:27:31;;;;;;;99.75;34.67;;;3.50;99.90;;;;;;5069325;28;20021;-44
2022/01/13 06:29:57;;;;;;;103.82;35.25;;;3.50;99.90;;;;;;5070091;28;20105;-44
2022/01/13 06:32:22;;;;;;;102.47;35.67;;;3.50;99.90;;;;;;5069799;28;20035;-44
2022/01/13 06:34:49;;;;;;;109.93;36.95;;;3.50;99.90;;;;;;5069720;28;20036;-45
2022/01/13 06:37:15;;;;;;;90.05;34.42;;;3.50;99.90;;;;;;5069087;28;20035;-44
2022/01/13 06:39:41;;;;;;;99.00;36.10;;;3.50;99.90;;;;;;5069551;28;20028;-44
2022/01/13 06:42:07;;;;;;;102.05;33.10;;;3.50;99.90;;;;;;5068293;28;20479;-45
2022/01/13 06:44:32;;;;;;;94.82;32.38;;;3.60;99.90;;;;;;5072208;28;20053;-44
2022/01/13 06:46:58;;;;;;;98.32;37.13;;;3.60;99.90;;;;;;5068528;28;20059;-44
2022/01/13 06:49:23;;;;;;;114.55;36.78;;;3.60;99.90;;;;;;5064022;28;20060;-44
2022/01/13 06:51:49;;;;;;;104.63;36.53;;;3.60;99.90;;;;;;5067624;28;20259;-45
2022/01/13 06:54:14;;;;;;;93.63;32.50;;;3.60;99.90;;;;;;5066870;28;20016;-44
2022/01/13 06:56:41;;;;;;;99.95;34.08;;;3.60;99.90;;;;;;5068280;28;20008;-46
2022/01/13 06:59:11;;;;;;;100.50;34.38;;;3.60;99.90;;;;;;5087083;28;20024;-47
2022/01/13 07:01:38;;;;;;;103.85;35.63;;;3.60;99.90;;;;;;5087856;28;20327;-45
2022/01/13 07:04:04;;;;;;;110.72;35.25;;;3.70;99.90;;;;;;5088256;28;20017;-47
2022/01/13 07:06:29;;;;;;;109.13;36.08;;;3.60;99.90;;;;;;5089324;28;20031;-45
2022/01/13 07:08:55;;;;;;;100.18;35.40;;;3.60;99.90;;;;;;5089026;28;20048;-47
2022/01/13 07:11:20;;;;;;;108.03;34.72;;;3.70;99.90;;;;;;5089211;28;20469;-45
2022/01/13 07:13:46;;;;;;;95.05;34.20;;;3.70;99.90;;;;;;5089024;28;20154;-45
2022/01/13 07:16:11;;;;;;;94.68;35.78;;;3.70;99.90;;;;;;5075339;28;20039;-45
2022/01/13 07:18:39;;;;;;;106.47;34.55;;;3.70;99.90;;;;;;5067730;28;20033;-45
2022/01/13 07:21:07;;;;;;;110.18;36.63;;;3.70;99.90;;;;;;5068350;28;20115;-45
2022/01/13 07:23:33;;;;;;;106.65;37.15;;;3.70;99.90;;;;;;5068704;28;20021;-44
2022/01/13 07:25:59;;;;;;;97.40;34.10;;;3.70;99.90;;;;;;5068516;28;20024;-45
2022/01/13 07:28:25;;;;;;;101.95;34.28;;;3.70;99.90;;;;;;5072160;28;20039;-45
2022/01/13 07:30:50;;;;;;;112.20;36.15;;;3.70;99.90;;;;;;5064846;28;20044;-45
2022/01/13 07:33:16;;;;;;;113.45;36.78;;;3.70;99.90;;;;;;5064191;28;20621;-44
2022/01/13 07:35:42;;;;;;;103.90;36.28;;;3.70;99.90;;;;;;5065614;28;20035;-44
2022/01/13 07:38:07;;;;;;;101.80;35.13;;;3.80;99.90;;;;;;5067125;28;20488;-44
2022/01/13 07:40:33;;;;;;;102.38;35.78;;;3.80;99.90;;;;;;5089052;28;20020;-44
2022/01/13 07:42:58;;;;;;;108.80;35.78;;;3.80;99.90;;;;;;5088705;28;20095;-45
2022/01/13 07:45:24;;;;;;;94.35;34.00;;;3.80;99.90;;;;;;5088655;28;20586;-44
2022/01/13 07:47:49;;;;;;;104.30;36.40;;;3.90;99.90;;;;;;5088179;28;20537;-44
2022/01/13 07:50:15;;;;;;;100.43;35.85;;;3.80;99.90;;;;;;5085936;28;20051;-45
2022/01/13 07:52:41;;;;;;;103.72;34.83;;;3.80;99.90;;;;;;5055906;28;20476;-45
2022/01/13 07:55:08;;;;;;;110.80;37.03;;;3.80;99.90;;;;;;5058751;28;20036;-45
2022/01/13 07:57:33;;;;;;;106.07;38.95;;;3.90;99.90;;;;;;5046273;28;20029;-43
2022/01/13 07:59:59;;;;;;;103.88;36.45;;;3.90;99.90;;;;;;5065218;28;20033;-44
2022/01/13 08:02:24;;;;;;;99.50;37.50;;;3.90;99.90;;;;;;5088325;28;20482;-44
2022/01/13 08:04:50;;;;;;;106.35;36.55;;;3.90;99.90;;;;;;5088379;28;20377;-44
2022/01/13 08:07:16;;;;;;;134.07;42.45;;;3.90;99.90;;;;;;5076354;28;20486;-44
2022/01/13 08:09:42;;;;;;;108.82;39.40;;;3.90;99.90;;;;;;5067959;28;20074;-44
2022/01/13 08:12:08;;;;;;;112.10;39.60;;;3.90;99.90;;;;;;5068233;28;20433;-44
2022/01/13 08:14:33;;;;;;;115.60;42.13;;;4.00;99.90;;;;;;5068393;28;20112;-46
2022/01/13 08:17:01;;;;;;;121.10;41.22;;;4.00;99.90;;;;;;5067760;28;20040;-45
2022/01/13 08:19:45;;;;;;;117.28;41.55;;;4.00;99.90;;;;;;5058300;28;20020;-45
2022/01/13 08:22:11;;;;;;;115.65;40.75;;;4.00;99.90;;;;;;5057062;28;20009;-45
2022/01/13 08:24:36;;;;;;;124.57;42.78;;;4.00;99.90;;;;;;5057608;28;20023;-45
2022/01/13 08:27:02;;;;;;;131.07;41.75;;;3.90;99.90;;;;;;5058345;28;20033;-46
2022/01/13 08:29:28;;;;;;;127.20;41.53;;;3.90;99.90;;;;;;5057369;28;20117;-44
2022/01/13 08:31:53;;;;;;;117.80;39.92;;;3.90;99.90;;;;;;5061908;28;20025;-45
2022/01/13 08:34:19;;;;;;;114.35;41.85;;;3.90;99.90;;;;;;5061757;28;20042;-45
2022/01/13 08:36:45;;;;;;;103.43;40.45;;;3.90;99.90;;;;;;5060171;28;20040;-44
2022/01/13 08:39:11;;;;;;;126.60;41.10;;;3.90;99.90;;;;;;5061589;28;20454;-44
2022/01/13 08:41:38;;;;;;;115.30;38.72;;;3.90;99.90;;;;;;5061161;28;20475;-44
2022/01/13 08:44:03;;;;;;;120.50;42.38;;;4.00;99.90;;;;;;5060366;28;20032;-45
2022/01/13 08:46:29;;;;;;;120.20;40.65;;;4.00;99.90;;;;;;5059575;28;20417;-45
2022/01/13 08:48:54;;;;;;;117.28;41.50;;;4.00;99.90;;;;;;5059470;28;20043;-45
2022/01/13 08:51:20;;;;;;;108.28;39.10;;;4.00;99.90;;;;;;5059784;28;20108;-45
2022/01/13 08:53:46;;;;;;;115.97;40.90;;;4.00;99.90;;;;;;5061400;28;20029;-45
2022/01/13 08:56:14;;;;;;;111.75;40.88;;;4.00;99.90;;;;;;5060935;28;20028;-44
2022/01/13 08:58:39;;;;;;;108.70;41.33;;;4.00;99.90;;;;;;5059110;28;20049;-44
2022/01/13 09:01:07;;;;;;;111.55;40.25;;;4.00;99.90;;;;;;5059143;28;20501;-44
2022/01/13 09:03:33;;;;;;;127.97;41.70;;;4.00;99.90;;;;;;5065274;28;20402;-44
2022/01/13 09:05:58;;;;;;;124.80;43.42;;;4.00;99.90;;;;;;5072851;28;20032;-44
2022/01/13 09:08:24;;;;;;;124.18;38.90;;;4.00;99.90;;;;;;5064807;28;20029;-45
2022/01/13 09:10:49;;;;;;;119.55;41.85;;;4.10;99.90;;;;;;5070454;28;20031;-44
2022/01/13 09:13:16;;;;;;;114.80;39.95;;;4.00;99.90;;;;;;5070030;28;20064;-45
2022/01/13 09:15:51;;;;;;;111.80;40.80;;;4.00;99.90;;;;;;5069903;28;20074;-44
2022/01/13 09:18:29;;;;;;;108.38;39.75;;;4.10;99.90;;;;;;5068672;28;20035;-44
2022/01/13 09:20:55;;;;;;;114.15;37.60;;;4.10;99.90;;;;;;5070377;28;20047;-45
2022/01/13 09:23:21;;;;;;;120.22;39.33;;;4.10;99.90;;;;;;5081489;28;20177;-45
2022/01/13 09:25:46;;;;;;;105.45;37.13;;;4.10;99.90;;;;;;5074932;28;20107;-44
2022/01/13 09:28:13;;;;;;;106.50;38.95;;;4.10;99.90;;;;;;5086110;28;20024;-45
2022/01/13 09:30:39;;;;;;;107.50;38.08;;;4.10;99.90;;;;;;5070262;28;20033;-45
2022/01/13 09:33:05;;;;;;;110.53;40.72;;;4.10;99.90;;;;;;5070400;28;20403;-44
2022/01/13 09:35:32;;;;;;;109.88;38.50;;;4.10;99.90;;;;;;5070094;28;20024;-45
2022/01/13 09:37:57;;;;;;;114.05;38.08;;;4.10;99.90;;;;;;5069929;28;20028;-44
2022/01/13 09:40:24;;;;;;;111.40;38.78;;;4.10;99.90;;;;;;5056449;28;20029;-44
2022/01/13 09:42:50;;;;;;;110.32;39.55;;;4.10;99.90;;;;;;5069417;28;20090;-44
2022/01/13 09:45:17;;;;;;;117.18;41.45;;;4.20;99.90;;;;;;5067863;28;20052;-44
2022/01/13 09:47:43;;;;;;;107.68;38.60;;;4.20;99.90;;;;;;5068540;28;20028;-44
2022/01/13 09:50:13;;;;;;;103.22;37.80;;;4.30;99.90;;;;;;5069333;28;20037;-44
2022/01/13 09:52:40;;;;;;;108.28;37.92;;;4.30;99.90;;;;;;5069546;28;20394;-44
2022/01/13 09:55:07;;;;;;;94.88;36.70;;;4.30;99.90;;;;;;5069373;28;20035;-44
2022/01/13 09:57:33;;;;;;;99.55;36.55;;;4.30;99.90;;;;;;5068244;28;20119;-46
2022/01/13 10:00:00;;;;;;;107.20;39.88;;;4.30;99.90;;;;;;5068921;28;20139;-45
2022/01/13 10:02:26;;;;;;;109.43;37.85;;;4.30;99.90;;;;;;5068906;28;20543;-44
2022/01/13 10:04:54;;;;;;;99.13;36.15;;;4.30;99.90;;;;;;5067485;28;20145;-44
2022/01/13 10:07:34;;;;;;;105.57;38.65;;;4.40;99.90;;;;;;5067559;28;20017;-44
2022/01/13 10:10:06;;;;;;;112.30;36.40;;;4.40;99.90;;;;;;5068962;28;20400;-44
2022/01/13 10:12:38;;;;;;;120.28;39.63;;;4.30;99.90;;;;;;5069116;28;20029;-44
2022/01/13 10:17:46;;;;;;;107.85;40.03;;;4.40;99.90;;;;;;5069832;28;20028;-44
2022/01/13 10:20:14;;;;;;;101.40;39.72;;;4.30;99.90;;;;;;5085354;28;20024;-45
2022/01/13 10:22:39;;;;;;;105.28;37.83;;;4.40;99.90;;;;;;5073699;28;20055;-44
2022/01/13 10:25:05;;;;;;;109.68;38.95;;;4.40;99.90;;;;;;5080690;28;20028;-44
2022/01/13 10:27:35;;;;;;;111.13;37.53;;;4.50;99.90;;;;;;5067556;28;20450;-44
2022/01/13 10:30:14;;;;;;;100.80;36.28;;;4.50;99.90;;;;;;5068188;28;20070;-44
2022/01/13 10:32:41;;;;;;;113.00;37.45;;;4.60;99.90;;;;;;5068987;28;20134;-44
2022/01/13 10:35:15;;;;;;;107.47;38.28;;;4.60;99.90;;;;;;5068961;28;20058;-44
2022/01/13 10:37:53;;;;;;;109.05;39.75;;;4.60;99.90;;;;;;5067557;28;20036;-45
2022/01/13 10:40:23;;;;;;;104.63;37.78;;;4.60;99.90;;;;;;5063136;28;20497;-45
2022/01/13 10:45:27;;;;;;;96.78;34.15;;;4.80;99.90;;;;;;5068227;28;20029;-44
2022/01/13 10:48:06;;;;;;;97.22;35.95;;;4.70;99.90;;;;;;5067535;28;20020;-44
2022/01/13 10:50:43;;;;;;;89.35;34.05;;;4.80;99.90;;;;;;5067951;28;20085;-45
2022/01/13 10:53:30;;;;;;;89.80;34.60;;;4.80;99.90;;;;;;5067324;28;20021;-45
2022/01/13 10:55:59;;;;;;;90.55;34.08;;;4.80;99.90;;;;;;5068395;28;20024;-45
2022/01/13 10:58:40;;;;;;;90.38;32.65;;;4.80;99.90;;;;;;5067303;28;20083;-45
2022/01/13 11:01:09;;;;;;;88.35;33.30;;;4.90;99.90;;;;;;5068199;28;20478;-45
2022/01/13 11:03:40;;;;;;;82.88;31.17;;;4.90;99.90;;;;;;5066909;28;20024;-45
2022/01/13 11:06:08;;;;;;;91.43;33.70;;;5.00;99.90;;;;;;5068181;28;20017;-45
2022/01/13 11:08:44;;;;;;;87.57;32.03;;;5.00;99.90;;;;;;5067008;28;20542;-45
2022/01/13 11:11:18;;;;;;;83.68;31.25;;;5.10;99.90;;;;;;5067711;28;20055;-44
2022/01/13 11:13:57;;;;;;;85.97;30.52;;;5.10;99.90;;;;;;5067992;28;20016;-44
2022/01/13 11:16:24;;;;;;;93.07;33.58;;;5.00;99.90;;;;;;5067840;28;20024;-44
2022/01/13 11:18:50;;;;;;;84.88;30.67;;;5.00;99.90;;;;;;5067542;28;20228;-44
2022/01/13 11:21:16;;;;;;;86.38;32.65;;;5.00;99.90;;;;;;5067579;28;20391;-44
2022/01/13 11:23:47;;;;;;;82.00;31.60;;;5.00;99.90;;;;;;5068044;28;20021;-44
2022/01/13 11:26:14;;;;;;;83.97;31.58;;;5.00;99.90;;;;;;5067643;28;20036;-44
2022/01/13 11:28:39;;;;;;;84.65;32.35;;;5.00;99.90;;;;;;5066773;28;20090;-44
2022/01/13 11:31:07;;;;;;;74.68;29.83;;;5.00;99.90;;;;;;5057330;28;20557;-44
2022/01/13 11:33:35;;;;;;;84.82;30.95;;;5.10;99.90;;;;;;5050585;28;20360;-45
2022/01/13 11:36:00;;;;;;;81.15;32.38;;;5.10;99.90;;;;;;5048287;28;20552;-45
2022/01/13 11:38:28;;;;;;;79.88;31.10;;;5.10;99.90;;;;;;5055492;28;20033;-45
2022/01/13 11:41:03;;;;;;;90.80;31.17;;;5.10;99.90;;;;;;5058809;28;20257;-44
2022/01/13 11:43:41;;;;;;;77.30;29.17;;;5.10;99.90;;;;;;5057315;28;20028;-44
2022/01/13 11:46:21;;;;;;;70.80;28.63;;;5.10;99.90;;;;;;5058596;28;20080;-45
2022/01/13 11:48:58;;;;;;;71.38;27.15;;;5.10;99.90;;;;;;5058633;28;20024;-45
2022/01/13 11:51:24;;;;;;;71.28;29.38;;;5.10;99.90;;;;;;5057646;28;20065;-45
2022/01/13 11:53:59;;;;;;;82.72;29.58;;;5.00;99.90;;;;;;5058170;28;20035;-47
2022/01/13 11:56:26;;;;;;;63.80;26.77;;;5.00;99.90;;;;;;5059188;28;20112;-45
2022/01/13 11:58:53;;;;;;;73.22;27.98;;;4.90;99.90;;;;;;5062449;28;20021;-45
2022/01/13 12:01:28;;;;;;;75.88;29.13;;;4.90;99.90;;;;;;5067576;28;20060;-45
2022/01/13 12:03:56;;;;;;;80.30;28.33;;;4.90;99.90;;;;;;5063701;28;20028;-45
2022/01/13 12:06:33;;;;;;;80.50;28.27;;;4.90;99.90;;;;;;5055201;28;20391;-45
2022/01/13 12:08:58;;;;;;;79.90;30.48;;;5.00;99.90;;;;;;5054369;28;20056;-45
2022/01/13 12:11:39;;;;;;;72.03;26.75;;;5.00;99.90;;;;;;5062955;28;20505;-45
2022/01/13 12:14:24;;;;;;;73.75;28.70;;;5.00;99.90;;;;;;5066732;28;20539;-48
2022/01/13 12:17:10;;;;;;;76.13;28.25;;;4.90;99.90;;;;;;5074831;28;20039;-45
2022/01/13 12:19:47;;;;;;;70.72;27.85;;;5.00;99.90;;;;;;5072901;28;20394;-45
2022/01/13 12:22:28;;;;;;;70.32;28.33;;;5.00;99.90;;;;;;5072790;28;20386;-45
2022/01/13 12:24:56;;;;;;;68.75;27.52;;;5.10;99.90;;;;;;5063161;28;20154;-46
2022/01/13 12:27:44;;;;;;;74.47;27.77;;;5.10;99.90;;;;;;5061419;28;20017;-45
2022/01/13 12:30:15;;;;;;;74.80;27.92;;;5.10;99.90;;;;;;5066884;28;20025;-46
2022/01/13 12:32:42;;;;;;;;;;;5.20;99.90;;;;;;5065201;28;20035;-46
2022/01/13 12:35:13;;;;;;;63.90;27.50;;;5.20;99.90;;;;;;5066909;28;20046;-45
2022/01/13 12:37:39;;;;;;;76.63;29.33;;;5.20;99.90;;;;;;5072152;28;20024;-45
2022/01/13 12:40:14;;;;;;;75.97;30.33;;;5.20;99.90;;;;;;5072935;28;20020;-45
2022/01/13 12:42:50;;;;;;;65.47;27.00;;;5.30;99.90;;;;;;5071765;28;20097;-46
2022/01/13 12:45:31;;;;;;;71.97;28.52;;;5.30;99.90;;;;;;5071363;28;20016;-47
2022/01/13 12:48:06;;;;;;;69.20;27.23;;;5.30;99.90;;;;;;5072995;28;20099;-46
2022/01/13 12:50:36;;;;;;;78.05;29.00;;;5.40;99.90;;;;;;5073008;28;20554;-45
2022/01/13 12:53:08;;;;;;;68.00;29.47;;;5.50;99.90;;;;;;5072041;28;20032;-45
2022/01/13 12:55:36;;;;;;;72.97;29.83;;;5.50;99.90;;;;;;5073102;28;20024;-48
2022/01/13 12:58:02;;;;;;;70.90;28.70;;;5.50;99.90;;;;;;5072127;28;20028;-45
2022/01/13 13:00:28;;;;;;;63.75;26.52;;;5.60;99.90;;;;;;5073091;28;20442;-46
2022/01/13 13:03:05;;;;;;;75.40;29.77;;;5.60;99.90;;;;;;5069545;28;20077;-46
2022/01/13 13:05:46;;;;;;;75.97;30.75;;;5.60;99.90;;;;;;5066641;28;20017;-45
2022/01/13 13:08:15;;;;;;;72.97;28.15;;;5.60;99.90;;;;;;5062304;28;20481;-45